createdAt,value
2022-11-25T00:01:18.598Z,2.20
2022-11-25T00:03:47.418Z,2.63
2022-11-25T00:06:17.356Z,3.05
2022-11-25T00:08:47.266Z,2.80
2022-11-25T00:11:16.136Z,2.78
2022-11-25T00:13:46.578Z,2.90
2022-11-25T00:16:16.543Z,4.25
2022-11-25T00:18:46.167Z,3.78
2022-11-25T00:21:15.689Z,3.35
2022-11-25T00:23:43.430Z,2.97
2022-11-25T00:26:13.159Z,3.05
2022-11-25T00:28:41.926Z,1.98
2022-11-25T00:31:14.284Z,2.67
2022-11-25T00:33:43.031Z,2.00
2022-11-25T00:36:17.058Z,3.70
2022-11-25T00:38:45.502Z,3.35
2022-11-25T00:41:27.512Z,3.45
2022-11-25T00:44:09.243Z,3.75
2022-11-25T00:46:38.286Z,4.22
2022-11-25T00:49:07.859Z,4.15
2022-11-25T00:51:35.566Z,3.90
2022-11-25T00:54:03.283Z,2.78
2022-11-25T00:56:31.170Z,2.88
2022-11-25T00:58:59.475Z,3.42
2022-11-25T01:01:27.289Z,4.28
2022-11-25T01:03:56.402Z,4.65
2022-11-25T01:06:24.191Z,4.07
2022-11-25T01:08:52.207Z,4.38
2022-11-25T01:11:21.498Z,5.00
2022-11-25T01:13:49.624Z,3.08
2022-11-25T01:16:19.044Z,3.70
2022-11-25T01:18:48.341Z,3.10
2022-11-25T01:21:18.997Z,3.08
2022-11-25T01:23:48.369Z,4.25
2022-11-25T01:26:18.370Z,3.60
2022-11-25T01:28:46.393Z,4.68
2022-11-25T01:31:16.424Z,4.95
2022-11-25T01:33:44.734Z,5.53
2022-11-25T01:36:15.457Z,4.47
2022-11-25T01:38:45.790Z,3.42
2022-11-25T01:41:16.754Z,4.57
2022-11-25T01:43:44.805Z,4.15
2022-11-25T01:46:22.899Z,3.60
2022-11-25T01:48:54.041Z,3.70
2022-11-25T01:51:27.442Z,2.17
2022-11-25T01:54:00.097Z,3.30
2022-11-25T01:56:30.569Z,2.75
2022-11-25T01:59:00.204Z,3.47
2022-11-25T02:01:28.352Z,4.55
2022-11-25T02:03:58.630Z,5.00
2022-11-25T02:06:29.641Z,5.40
2022-11-25T02:09:05.457Z,4.90
2022-11-25T02:11:35.737Z,4.25
2022-11-25T02:14:07.937Z,4.32
2022-11-25T02:16:36.181Z,4.13
2022-11-25T02:19:04.701Z,3.92
2022-11-25T02:21:39.381Z,3.55
2022-11-25T02:24:19.141Z,3.30
2022-11-25T02:26:48.828Z,3.15
2022-11-25T02:29:16.805Z,3.05
2022-11-25T02:31:45.164Z,3.33
2022-11-25T02:34:13.893Z,4.03
2022-11-25T02:36:41.629Z,3.85
2022-11-25T02:39:09.918Z,3.55
2022-11-25T02:41:40.731Z,2.35
2022-11-25T02:44:11.118Z,2.30
2022-11-25T02:46:40.177Z,2.40
2022-11-25T02:49:09.945Z,2.72
2022-11-25T02:51:40.262Z,3.00
2022-11-25T02:54:10.073Z,3.08
2022-11-25T02:56:40.035Z,2.05
2022-11-25T02:59:11.158Z,1.73
2022-11-25T03:01:40.260Z,1.40
2022-11-25T03:04:10.468Z,3.05
2022-11-25T03:06:38.419Z,1.67
2022-11-25T03:09:07.821Z,2.58
2022-11-25T03:11:53.005Z,1.65
2022-11-25T03:14:23.546Z,1.58
2022-11-25T03:16:51.401Z,1.15
2022-11-25T03:19:19.150Z,1.85
2022-11-25T03:21:46.830Z,1.58
2022-11-25T03:24:14.514Z,1.17
2022-11-25T03:26:42.233Z,1.45
2022-11-25T03:29:10.064Z,1.60
2022-11-25T03:31:40.555Z,1.20
2022-11-25T03:34:11.565Z,0.95
2022-11-25T03:36:39.478Z,1.10
2022-11-25T03:39:07.412Z,1.65
2022-11-25T03:41:37.268Z,1.00
2022-11-25T03:44:05.259Z,1.50
2022-11-25T03:46:33.549Z,1.55
2022-11-25T03:49:05.664Z,2.03
2022-11-25T03:51:33.601Z,1.85
2022-11-25T03:54:01.453Z,2.28
2022-11-25T03:56:31.816Z,2.30
2022-11-25T03:58:59.667Z,1.70
2022-11-25T04:01:27.481Z,2.25
2022-11-25T04:03:55.353Z,2.60
2022-11-25T04:06:24.540Z,2.65
2022-11-25T04:08:54.481Z,2.97
2022-11-25T04:11:42.566Z,3.10
2022-11-25T04:14:10.908Z,2.55
2022-11-25T04:16:38.626Z,2.08
2022-11-25T04:19:06.894Z,2.25
2022-11-25T04:21:35.971Z,3.17
2022-11-25T04:24:03.957Z,2.45
2022-11-25T04:26:31.742Z,2.60
2022-11-25T04:28:59.583Z,3.03
2022-11-25T04:31:28.850Z,2.10
2022-11-25T04:33:56.917Z,2.65
2022-11-25T04:36:25.174Z,2.35
2022-11-25T04:38:54.770Z,2.78
2022-11-25T04:41:23.319Z,2.35
2022-11-25T04:43:51.072Z,3.75
2022-11-25T04:46:23.071Z,2.25
2022-11-25T04:48:52.097Z,2.60
2022-11-25T04:51:22.712Z,2.60
2022-11-25T04:53:55.530Z,2.15
2022-11-25T04:56:25.337Z,1.60
2022-11-25T04:59:08.853Z,1.45
2022-11-25T05:01:40.574Z,1.45
2022-11-25T05:04:23.549Z,1.63
2022-11-25T05:06:51.623Z,1.13
2022-11-25T05:09:21.523Z,1.58
2022-11-25T05:11:58.306Z,1.02
2022-11-25T05:14:26.736Z,1.27
2022-11-25T05:16:54.628Z,1.30
2022-11-25T05:19:22.374Z,1.63
2022-11-25T05:21:51.332Z,1.17
2022-11-25T05:24:20.673Z,1.40
2022-11-25T05:26:51.467Z,1.52
2022-11-25T05:29:19.861Z,1.63
2022-11-25T05:31:49.282Z,2.08
2022-11-25T05:34:17.281Z,1.88
2022-11-25T05:36:46.287Z,1.73
2022-11-25T05:39:14.055Z,1.63
2022-11-25T05:42:03.106Z,1.52
2022-11-25T05:44:31.781Z,1.90
2022-11-25T05:46:59.526Z,1.75
2022-11-25T05:49:27.246Z,1.80
2022-11-25T05:51:54.986Z,2.20
2022-11-25T05:54:26.310Z,2.15
2022-11-25T05:56:54.061Z,2.72
2022-11-25T05:59:33.222Z,1.92
2022-11-25T06:02:08.943Z,1.23
2022-11-25T06:04:37.188Z,2.05
2022-11-25T06:07:06.002Z,2.17
2022-11-25T06:09:33.974Z,2.00
2022-11-25T06:12:01.746Z,2.40
2022-11-25T06:14:34.406Z,2.53
2022-11-25T06:17:02.591Z,2.28
2022-11-25T06:19:35.815Z,2.50
2022-11-25T06:22:04.178Z,2.28
2022-11-25T06:24:31.931Z,2.65
2022-11-25T06:27:05.468Z,2.50
2022-11-25T06:29:36.218Z,2.45
2022-11-25T06:32:04.234Z,2.55
2022-11-25T06:34:52.297Z,1.83
2022-11-25T06:37:30.194Z,2.35
2022-11-25T06:39:57.963Z,2.90
2022-11-25T06:42:25.817Z,2.90
2022-11-25T06:44:55.062Z,2.90
2022-11-25T06:47:22.810Z,4.28
2022-11-25T06:49:50.722Z,2.80
2022-11-25T06:52:18.641Z,2.15
2022-11-25T06:54:46.442Z,3.10
2022-11-25T06:57:18.822Z,4.10
2022-11-25T06:59:46.815Z,5.28
2022-11-25T07:02:16.208Z,4.85
2022-11-25T07:04:44.582Z,5.15
2022-11-25T07:07:12.480Z,5.82
2022-11-25T07:09:40.251Z,5.78
2022-11-25T07:12:09.705Z,5.78
2022-11-25T07:14:37.740Z,6.03
2022-11-25T07:17:11.561Z,4.90
2022-11-25T07:19:41.418Z,5.22
2022-11-25T07:22:09.206Z,5.65
2022-11-25T07:24:37.294Z,6.35
2022-11-25T07:27:06.357Z,5.30
2022-11-25T07:29:54.549Z,4.88
2022-11-25T07:32:23.815Z,3.90
2022-11-25T07:34:52.776Z,3.30
2022-11-25T07:37:20.501Z,2.85
2022-11-25T07:39:48.175Z,1.83
2022-11-25T07:42:15.855Z,1.70
2022-11-25T07:44:43.724Z,2.20
2022-11-25T07:47:34.275Z,2.30
2022-11-25T07:50:03.815Z,2.75
2022-11-25T07:52:31.500Z,1.98
2022-11-25T07:54:59.404Z,1.90
2022-11-25T07:57:27.082Z,1.42
2022-11-25T07:59:55.038Z,2.03
2022-11-25T08:02:22.950Z,2.08
2022-11-25T08:04:50.656Z,1.70
2022-11-25T08:07:23.073Z,1.35
2022-11-25T08:09:51.414Z,2.00
2022-11-25T08:12:19.322Z,1.95
2022-11-25T08:14:47.007Z,2.38
2022-11-25T08:17:14.736Z,3.42
2022-11-25T08:19:42.672Z,4.28
2022-11-25T08:22:11.611Z,3.35
2022-11-25T08:24:40.819Z,3.28
2022-11-25T08:27:08.634Z,2.20
2022-11-25T08:29:36.563Z,2.10
2022-11-25T08:32:10.295Z,2.58
2022-11-25T08:34:39.411Z,3.95
2022-11-25T08:37:08.952Z,2.70
2022-11-25T08:39:51.644Z,3.58
2022-11-25T08:42:23.596Z,3.08
2022-11-25T08:44:53.658Z,5.80
2022-11-25T08:47:21.401Z,6.35
2022-11-25T08:49:51.687Z,10.07
2022-11-25T08:52:19.628Z,11.85
2022-11-25T08:54:47.812Z,11.90
2022-11-25T08:57:16.194Z,9.85
2022-11-25T08:59:45.361Z,10.80
2022-11-25T09:02:16.784Z,9.60
2022-11-25T09:04:44.742Z,9.07
2022-11-25T09:07:13.094Z,8.30
2022-11-25T09:09:40.935Z,8.02
2022-11-25T09:12:11.923Z,7.93
2022-11-25T09:14:40.377Z,8.63
2022-11-25T09:17:11.190Z,8.10
2022-11-25T09:19:39.164Z,8.20
2022-11-25T09:22:07.757Z,7.45
2022-11-25T09:24:36.170Z,7.50
2022-11-25T09:27:04.103Z,5.78
2022-11-25T09:29:31.898Z,3.30
2022-11-25T09:31:59.734Z,4.10
2022-11-25T09:34:28.855Z,3.90
2022-11-25T09:36:56.607Z,3.78
2022-11-25T09:39:28.022Z,4.30
2022-11-25T09:42:23.590Z,4.10
2022-11-25T09:45:21.454Z,4.28
2022-11-25T09:47:57.821Z,4.00
2022-11-25T09:50:41.851Z,4.40
2022-11-25T09:53:24.330Z,4.45
2022-11-25T09:56:01.674Z,4.35
2022-11-25T09:58:35.150Z,3.75
2022-11-25T10:01:06.315Z,4.50
2022-11-25T10:03:40.989Z,2.85
2022-11-25T10:06:16.218Z,3.30
2022-11-25T10:08:46.156Z,3.20
2022-11-25T10:11:23.306Z,3.60
2022-11-25T10:13:56.094Z,3.55
2022-11-25T10:16:34.193Z,4.60
2022-11-25T10:19:06.802Z,3.05
2022-11-25T10:21:36.065Z,3.20
2022-11-25T10:24:04.822Z,2.72
2022-11-25T10:26:43.130Z,3.50
2022-11-25T10:29:23.843Z,3.88
2022-11-25T10:31:54.989Z,3.50
2022-11-25T10:34:29.843Z,3.33
2022-11-25T10:37:01.477Z,3.30
2022-11-25T10:39:33.214Z,3.97
2022-11-25T10:42:06.239Z,3.25
2022-11-25T10:44:36.338Z,3.25
2022-11-25T10:47:20.854Z,3.35
2022-11-25T10:50:00.807Z,4.43
2022-11-25T10:52:33.782Z,5.22
2022-11-25T10:55:11.000Z,5.22
2022-11-25T10:57:38.795Z,4.88
2022-11-25T11:00:14.129Z,5.30
2022-11-25T11:02:48.294Z,5.70
2022-11-25T11:05:23.066Z,6.75
2022-11-25T11:08:10.829Z,6.55
2022-11-25T11:10:38.731Z,7.22
2022-11-25T11:13:18.771Z,7.10
2022-11-25T11:15:48.595Z,8.35
2022-11-25T11:18:25.124Z,7.75
2022-11-25T11:20:54.566Z,9.43
2022-11-25T11:23:24.114Z,9.40
2022-11-25T11:25:59.836Z,10.27
2022-11-25T11:28:38.455Z,8.77
2022-11-25T11:31:08.971Z,6.60
2022-11-25T11:33:41.710Z,6.80
2022-11-25T11:36:30.303Z,8.05
2022-11-25T11:39:14.427Z,9.50
2022-11-25T11:41:49.192Z,8.50
2022-11-25T11:44:26.150Z,10.40
2022-11-25T11:47:10.253Z,10.65
2022-11-25T11:49:54.875Z,10.10
2022-11-25T11:52:32.500Z,10.65
2022-11-25T11:55:12.990Z,12.63
2022-11-25T11:57:49.222Z,10.70
2022-11-25T12:00:20.377Z,10.00
2022-11-25T12:02:57.692Z,10.13
2022-11-25T12:05:29.234Z,9.10
2022-11-25T12:08:06.871Z,7.35
2022-11-25T12:10:40.808Z,6.63
2022-11-25T12:13:17.526Z,5.30
2022-11-25T12:15:49.648Z,4.13
2022-11-25T12:18:28.378Z,3.92
2022-11-25T12:21:03.126Z,3.63
2022-11-25T12:23:43.653Z,3.63
2022-11-25T12:26:18.977Z,3.55
2022-11-25T12:28:52.885Z,4.28
2022-11-25T12:31:27.390Z,4.47
2022-11-25T12:34:02.906Z,3.85
2022-11-25T12:36:35.577Z,4.15
2022-11-25T12:39:06.218Z,3.45
2022-11-25T12:41:42.629Z,3.05
2022-11-25T12:44:17.490Z,2.95
2022-11-25T12:46:47.823Z,3.08
2022-11-25T12:49:20.303Z,3.58
2022-11-25T12:52:10.116Z,3.08
2022-11-25T12:54:55.230Z,3.35
2022-11-25T12:57:48.650Z,3.80
2022-11-25T13:03:34.570Z,4.55
2022-11-25T13:06:17.161Z,3.60
2022-11-25T13:08:57.794Z,3.50
2022-11-25T13:11:48.783Z,2.83
2022-11-25T13:14:26.782Z,3.10
2022-11-25T13:16:57.405Z,3.95
2022-11-25T13:19:25.637Z,2.63
2022-11-25T13:22:02.605Z,2.88
2022-11-25T13:24:33.785Z,2.40
2022-11-25T13:27:02.340Z,2.40
2022-11-25T13:29:59.005Z,2.40
2022-11-25T13:32:31.241Z,2.83
2022-11-25T13:35:29.547Z,2.78
2022-11-25T13:37:57.284Z,2.75
2022-11-25T13:40:37.118Z,2.80
2022-11-25T13:43:05.992Z,3.75
2022-11-25T13:45:35.967Z,3.80
2022-11-25T13:48:16.229Z,2.70
2022-11-25T13:51:09.528Z,2.80
2022-11-25T13:53:35.084Z,3.45
2022-11-25T13:56:15.394Z,3.47
2022-11-25T13:59:20.077Z,2.70
2022-11-25T14:02:16.612Z,3.45
2022-11-25T14:04:55.780Z,3.22
2022-11-25T14:07:33.606Z,3.72
2022-11-25T14:10:16.522Z,2.60
2022-11-25T14:12:58.099Z,3.13
2022-11-25T14:15:33.999Z,3.15
2022-11-25T14:18:37.080Z,3.42
2022-11-25T14:21:25.270Z,4.15
2022-11-25T14:24:12.398Z,4.15
2022-11-25T14:26:56.148Z,4.43
2022-11-25T14:29:29.711Z,5.05
2022-11-25T14:32:02.850Z,6.40
2022-11-25T14:34:35.142Z,19.92
2022-11-25T14:37:12.655Z,11.60
2022-11-25T14:39:47.443Z,5.55
2022-11-25T14:42:18.413Z,3.20
2022-11-25T14:44:48.725Z,2.80
2022-11-25T14:47:21.607Z,3.10
2022-11-25T14:50:11.808Z,3.33
2022-11-25T14:52:43.663Z,11.18
2022-11-25T14:55:12.722Z,4.55
2022-11-25T14:57:45.782Z,3.60
2022-11-25T15:00:17.466Z,4.45
2022-11-25T15:02:54.641Z,2.63
2022-11-25T15:05:26.066Z,6.13
2022-11-25T15:08:00.991Z,6.47
2022-11-25T15:10:32.606Z,4.65
2022-11-25T15:13:02.640Z,3.40
2022-11-25T15:15:32.346Z,5.93
2022-11-25T15:18:04.770Z,4.45
2022-11-25T15:20:35.003Z,6.45
2022-11-25T15:23:05.892Z,3.88
2022-11-25T15:25:33.590Z,3.70
2022-11-25T15:28:02.381Z,4.80
2022-11-25T15:30:30.655Z,12.52
2022-11-25T15:32:58.890Z,7.05
2022-11-25T15:35:28.405Z,5.28
2022-11-25T15:37:56.101Z,4.90
2022-11-25T15:40:36.306Z,8.00
2022-11-25T15:43:07.615Z,11.63
2022-11-25T15:45:44.117Z,6.63
2022-11-25T15:48:17.850Z,4.63
2022-11-25T15:50:45.622Z,4.70
2022-11-25T15:53:28.831Z,3.78
2022-11-25T15:56:02.655Z,5.22
2022-11-25T15:58:30.814Z,4.70
2022-11-25T16:01:07.035Z,3.70
2022-11-25T16:03:36.026Z,3.78
2022-11-25T16:06:19.302Z,3.90
2022-11-25T16:08:54.418Z,5.10
2022-11-25T16:11:25.481Z,4.80
2022-11-25T16:13:54.147Z,7.78
2022-11-25T16:16:25.695Z,8.10
2022-11-25T16:19:11.408Z,8.38
2022-11-25T16:21:43.674Z,7.70
2022-11-25T16:24:21.721Z,7.05
2022-11-25T16:26:54.522Z,8.57
2022-11-25T16:29:30.996Z,5.72
2022-11-25T16:31:59.432Z,5.85
2022-11-25T16:34:28.342Z,7.78
2022-11-25T16:36:56.089Z,11.82
2022-11-25T16:39:23.764Z,6.55
2022-11-25T16:41:58.637Z,8.05
2022-11-25T16:44:27.995Z,7.40
2022-11-25T16:46:55.934Z,6.95
2022-11-25T16:49:23.838Z,7.30
2022-11-25T16:51:51.766Z,7.25
2022-11-25T16:54:20.277Z,7.40
2022-11-25T16:56:51.142Z,6.10
2022-11-25T16:59:25.035Z,7.93
2022-11-25T17:01:53.549Z,7.93
2022-11-25T17:04:21.370Z,9.73
2022-11-25T17:07:16.369Z,8.55
2022-11-25T17:09:37.067Z,9.02
2022-11-25T17:12:07.996Z,7.30
2022-11-25T17:14:37.965Z,10.52
2022-11-25T17:17:05.876Z,8.55
2022-11-25T17:19:33.620Z,7.68
2022-11-25T17:22:01.429Z,9.48
2022-11-25T17:24:29.390Z,8.10
2022-11-25T17:26:59.287Z,9.00
2022-11-25T17:29:32.608Z,9.88
2022-11-25T17:32:02.341Z,8.75
2022-11-25T17:34:32.678Z,7.90
2022-11-25T17:37:05.508Z,10.18
2022-11-25T17:39:33.170Z,8.05
2022-11-25T17:42:02.159Z,8.90
2022-11-25T17:44:30.577Z,9.00
2022-11-25T17:46:59.673Z,10.15
2022-11-25T17:49:28.727Z,9.77
2022-11-25T17:51:56.604Z,10.18
2022-11-25T17:54:24.345Z,9.32
2022-11-25T17:56:52.755Z,10.27
2022-11-25T17:59:26.486Z,11.23
2022-11-25T18:01:55.921Z,8.27
2022-11-25T18:04:25.619Z,11.50
2022-11-25T18:06:54.697Z,11.10
2022-11-25T18:09:22.845Z,11.85
2022-11-25T18:11:53.656Z,13.27
2022-11-25T18:14:26.712Z,11.05
2022-11-25T18:16:55.911Z,13.13
2022-11-25T18:19:23.732Z,10.73
2022-11-25T18:21:51.418Z,11.38
2022-11-25T18:24:20.423Z,11.50
2022-11-25T18:26:50.775Z,9.63
2022-11-25T18:29:23.847Z,9.93
2022-11-25T18:31:52.378Z,11.82
2022-11-25T18:34:20.270Z,11.60
2022-11-25T18:36:47.934Z,10.20
2022-11-25T18:39:15.665Z,9.75
2022-11-25T18:41:46.335Z,10.77
2022-11-25T18:44:25.833Z,9.60
2022-11-25T18:46:54.622Z,11.30
2022-11-25T18:49:23.661Z,11.70
2022-11-25T18:51:51.446Z,10.68
2022-11-25T18:54:19.183Z,13.45
2022-11-25T18:56:51.984Z,9.93
2022-11-25T18:59:25.254Z,10.10
2022-11-25T19:01:52.991Z,9.10
2022-11-25T19:04:20.724Z,12.82
2022-11-25T19:06:48.392Z,10.93
2022-11-25T19:09:16.191Z,16.90
2022-11-25T19:11:47.856Z,10.00
2022-11-25T19:14:27.406Z,9.55
2022-11-25T19:16:55.521Z,10.23
2022-11-25T19:19:23.323Z,9.20
2022-11-25T19:21:51.029Z,9.70
2022-11-25T19:24:18.762Z,10.23
2022-11-25T19:26:49.064Z,11.30
2022-11-25T19:29:21.430Z,10.55
2022-11-25T19:31:50.529Z,11.15
2022-11-25T19:34:26.630Z,9.93
2022-11-25T19:36:54.352Z,9.73
2022-11-25T19:39:22.087Z,9.00
2022-11-25T19:41:49.835Z,13.32
2022-11-25T19:44:19.776Z,13.65
2022-11-25T19:47:14.184Z,12.75
2022-11-25T19:49:37.860Z,13.43
2022-11-25T19:52:05.907Z,14.13
2022-11-25T19:54:34.034Z,15.95
2022-11-25T19:57:01.938Z,13.70
2022-11-25T19:59:30.965Z,15.52
2022-11-25T20:01:58.955Z,16.23
2022-11-25T20:04:27.169Z,16.20
2022-11-25T20:06:55.242Z,13.57
2022-11-25T20:09:23.122Z,15.15
2022-11-25T20:11:54.241Z,14.35
2022-11-25T20:14:21.965Z,11.98
2022-11-25T20:16:51.446Z,12.27
2022-11-25T20:19:19.588Z,12.40
2022-11-25T20:21:48.872Z,11.93
2022-11-25T20:24:20.518Z,9.35
2022-11-25T20:26:50.322Z,10.10
2022-11-25T20:29:25.897Z,10.40
2022-11-25T20:31:58.384Z,11.38
2022-11-25T20:34:28.327Z,11.90
2022-11-25T20:36:56.327Z,10.07
2022-11-25T20:39:24.363Z,10.68
2022-11-25T20:41:53.684Z,10.50
2022-11-25T20:44:22.423Z,13.23
2022-11-25T20:46:50.300Z,11.32
2022-11-25T20:49:25.513Z,10.68
2022-11-25T20:51:53.440Z,11.60
2022-11-25T20:54:23.814Z,10.68
2022-11-25T20:56:51.602Z,10.82
2022-11-25T20:59:22.184Z,9.90
2022-11-25T21:01:50.138Z,9.85
2022-11-25T21:04:18.268Z,9.65
2022-11-25T21:06:47.876Z,9.93
2022-11-25T21:09:20.109Z,10.57
2022-11-25T21:11:48.514Z,9.10
2022-11-25T21:14:18.227Z,10.73
2022-11-25T21:16:46.180Z,11.52
2022-11-25T21:19:14.201Z,10.63
2022-11-25T21:21:45.488Z,11.65
2022-11-25T21:24:29.301Z,9.77
2022-11-25T21:26:57.399Z,9.40
2022-11-25T21:29:25.114Z,9.38
2022-11-25T21:31:53.364Z,10.00
2022-11-25T21:34:21.430Z,9.60
2022-11-25T21:36:52.250Z,11.30
2022-11-25T21:39:28.672Z,10.10
2022-11-25T21:41:58.591Z,9.80
2022-11-25T21:44:30.178Z,8.70
2022-11-25T21:46:58.270Z,9.82
2022-11-25T21:49:26.787Z,10.15
2022-11-25T21:51:54.537Z,9.55
2022-11-25T21:54:23.541Z,9.30
2022-11-25T21:56:52.227Z,9.55
2022-11-25T21:59:21.383Z,10.02
2022-11-25T22:01:49.181Z,11.73
2022-11-25T22:04:19.496Z,10.75
2022-11-25T22:06:48.010Z,10.13
2022-11-25T22:09:16.061Z,10.52
2022-11-25T22:11:47.174Z,10.15
2022-11-25T22:14:22.295Z,10.63
2022-11-25T22:16:50.096Z,9.60
2022-11-25T22:19:21.626Z,10.00
2022-11-25T22:21:49.335Z,9.93
2022-11-25T22:24:18.669Z,10.57
2022-11-25T22:26:53.450Z,9.57
2022-11-25T22:29:32.218Z,9.10
2022-11-25T22:32:00.022Z,9.48
2022-11-25T22:34:27.955Z,9.43
2022-11-25T22:36:55.690Z,10.15
2022-11-25T22:39:24.979Z,10.10
2022-11-25T22:41:56.422Z,9.38
2022-11-25T22:44:33.858Z,8.40
2022-11-25T22:47:01.638Z,9.65
2022-11-25T22:49:34.858Z,7.95
2022-11-25T22:52:02.913Z,7.85
2022-11-25T22:54:30.757Z,10.10
2022-11-25T22:56:59.878Z,9.43
2022-11-25T22:59:27.508Z,9.05
2022-11-25T23:01:55.418Z,8.40
2022-11-25T23:04:30.938Z,7.82
2022-11-25T23:06:58.784Z,9.10
2022-11-25T23:09:26.494Z,7.97
2022-11-25T23:11:54.360Z,8.38
2022-11-25T23:14:23.413Z,8.02
2022-11-25T23:16:51.186Z,8.07
2022-11-25T23:19:18.930Z,7.43
2022-11-25T23:21:46.999Z,7.60
2022-11-25T23:24:17.523Z,7.53
2022-11-25T23:26:45.643Z,8.20
2022-11-25T23:29:13.342Z,7.00
2022-11-25T23:31:42.423Z,7.05
2022-11-25T23:34:13.262Z,7.15
2022-11-25T23:36:44.538Z,6.53
2022-11-25T23:39:19.661Z,6.90
2022-11-25T23:41:48.600Z,8.25
2022-11-25T23:44:22.222Z,8.73
2022-11-25T23:46:51.952Z,7.03
2022-11-25T23:49:23.784Z,6.65
2022-11-25T23:51:52.411Z,6.68
2022-11-25T23:54:22.049Z,6.60
2022-11-25T23:56:49.838Z,7.38
2022-11-25T23:59:18.220Z,7.28
